createdAt,value
2022-10-01T00:01:14.880Z,100365.13
2022-10-01T00:03:42.117Z,100368.59
2022-10-01T00:06:13.385Z,100362.41
2022-10-01T00:08:41.561Z,100344.59
2022-10-01T00:11:13.088Z,100344.59
2022-10-01T00:13:40.238Z,100337.66
2022-10-01T00:16:09.036Z,100329.53
2022-10-01T00:18:37.462Z,100341.91
2022-10-01T00:21:15.466Z,100324.13
2022-10-01T00:23:42.572Z,100317.16
2022-10-01T00:26:14.347Z,100314.44
2022-10-01T00:28:41.984Z,100309.81
2022-10-01T00:31:09.759Z,100285.84
2022-10-01T00:34:17.353Z,100300.16
2022-10-01T00:36:43.710Z,100272.34
2022-10-01T00:39:11.821Z,100276.16
2022-10-01T00:41:38.479Z,100246.84
2022-10-01T00:44:29.173Z,100233.66
2022-10-01T00:47:01.623Z,100215.09
2022-10-01T00:49:30.497Z,100220.56
2022-10-01T00:52:05.584Z,100215.16
2022-10-01T00:54:40.640Z,100206.25
2022-10-01T00:57:07.653Z,100193.16
2022-10-01T00:59:35.530Z,100207.84
2022-10-01T01:02:04.560Z,100207.47
2022-10-01T01:04:31.256Z,100205.53
2022-10-01T01:07:03.935Z,100192.03
2022-10-01T01:09:40.355Z,100199.78
2022-10-01T01:12:25.530Z,100195.13
2022-10-01T01:15:28.988Z,100195.56
2022-10-01T01:18:06.083Z,100195.19
2022-10-01T01:21:08.034Z,100194.41
2022-10-01T01:23:49.412Z,100161.97
2022-10-01T01:26:54.616Z,100157.31
2022-10-01T01:29:43.580Z,100146.50
2022-10-01T01:32:22.740Z,100141.09
2022-10-01T01:34:52.447Z,100132.97
2022-10-01T01:37:24.165Z,100119.09
2022-10-01T01:39:53.285Z,100106.34
2022-10-01T01:42:29.184Z,100098.59
2022-10-01T01:44:58.845Z,100097.88
2022-10-01T01:47:33.046Z,100108.69
2022-10-01T01:50:02.764Z,100100.19
2022-10-01T01:52:30.575Z,100109.09
2022-10-01T01:54:58.185Z,100103.31
2022-10-01T01:57:25.279Z,100097.13
2022-10-01T01:59:53.817Z,100097.56
2022-10-01T02:02:33.363Z,100096.44
2022-10-01T02:05:03.538Z,100101.84
2022-10-01T02:07:54.414Z,100103.81
2022-10-01T02:10:59.861Z,100101.88
2022-10-01T02:13:54.171Z,100115.81
2022-10-01T02:16:28.044Z,100108.47
2022-10-01T02:19:05.528Z,100113.13
2022-10-01T02:21:47.288Z,100115.44
2022-10-01T02:24:22.641Z,100104.63
2022-10-01T02:26:52.189Z,100090.75
2022-10-01T02:29:22.190Z,100100.78
2022-10-01T02:31:53.321Z,100100.41
2022-10-01T02:34:24.013Z,100098.13
2022-10-01T02:36:52.323Z,100103.94
2022-10-01T02:39:21.579Z,100096.59
2022-10-01T02:41:51.691Z,100085.78
2022-10-01T02:44:23.309Z,100092.75
2022-10-01T02:46:56.203Z,100106.69
2022-10-01T02:49:23.551Z,100080.41
2022-10-01T02:52:12.213Z,100092.44
2022-10-01T02:54:47.408Z,100096.66
2022-10-01T02:57:27.737Z,100100.19
2022-10-01T03:00:00.254Z,100090.53
2022-10-01T03:02:31.831Z,100097.50
2022-10-01T03:04:59.469Z,100097.16
2022-10-01T03:07:27.943Z,100093.63
2022-10-01T03:09:54.809Z,100084.78
2022-10-01T03:12:22.533Z,100072.81
2022-10-01T03:14:49.643Z,100062.41
2022-10-01T03:17:16.964Z,100064.75
2022-10-01T03:19:43.402Z,100058.97
2022-10-01T03:22:14.781Z,100058.56
2022-10-01T03:24:41.387Z,100059.34
2022-10-01T03:27:07.729Z,100058.22
2022-10-01T03:29:34.232Z,100055.94
2022-10-01T03:32:04.084Z,100051.31
2022-10-01T03:34:30.622Z,100046.69
2022-10-01T03:36:56.985Z,100047.06
2022-10-01T03:39:23.336Z,100040.91
2022-10-01T03:41:50.004Z,100044.81
2022-10-01T03:44:16.382Z,100042.91
2022-10-01T03:46:43.755Z,100054.50
2022-10-01T03:49:10.652Z,100046.41
2022-10-01T03:51:44.829Z,100047.59
2022-10-01T03:54:16.717Z,100043.72
2022-10-01T03:56:43.314Z,100038.72
2022-10-01T03:59:11.201Z,100053.44
2022-10-01T04:01:39.372Z,100055.41
2022-10-01T04:04:06.627Z,100047.28
2022-10-01T04:06:33.335Z,100052.72
2022-10-01T04:08:59.843Z,100053.84
2022-10-01T04:11:29.028Z,100065.88
2022-10-01T04:13:57.750Z,100058.16
2022-10-01T04:16:24.902Z,100059.31
2022-10-01T04:18:51.486Z,100064.78
2022-10-01T04:21:18.005Z,100062.06
2022-10-01T04:23:44.487Z,100067.88
2022-10-01T04:26:11.084Z,100069.84
2022-10-01T04:28:37.517Z,100072.97
2022-10-01T04:31:22.602Z,100079.50
2022-10-01T04:33:49.269Z,100087.66
2022-10-01T04:36:15.955Z,100087.28
2022-10-01T04:38:42.853Z,100093.13
2022-10-01T04:41:09.781Z,100098.53
2022-10-01T04:43:36.840Z,100091.59
2022-10-01T04:46:03.198Z,100114.81
2022-10-01T04:48:29.703Z,100107.50
2022-10-01T04:50:56.056Z,100120.25
2022-10-01T04:53:22.446Z,100126.88
2022-10-01T04:55:48.845Z,100124.59
2022-10-01T04:58:15.483Z,100126.16
2022-10-01T05:00:41.896Z,100121.16
2022-10-01T05:03:08.314Z,100125.41
2022-10-01T05:05:35.319Z,100133.59
2022-10-01T05:08:02.255Z,100130.06
2022-10-01T05:10:29.789Z,100144.81
2022-10-01T05:12:57.939Z,100144.03
2022-10-01T05:15:24.457Z,100148.31
2022-10-01T05:17:51.031Z,100150.63
2022-10-01T05:20:20.473Z,100159.13
2022-10-01T05:22:48.966Z,100164.97
2022-10-01T05:25:17.244Z,100158.38
2022-10-01T05:27:44.533Z,100170.38
2022-10-01T05:30:13.036Z,100171.94
2022-10-01T05:32:39.929Z,100185.50
2022-10-01T05:35:07.745Z,100182.81
2022-10-01T05:37:34.949Z,100188.25
2022-10-01T05:40:01.852Z,100194.44
2022-10-01T05:42:28.213Z,100199.09
2022-10-01T05:44:56.240Z,100207.22
2022-10-01T05:47:22.940Z,100204.88
2022-10-01T05:49:49.539Z,100204.84
2022-10-01T05:52:16.489Z,100202.88
2022-10-01T05:54:43.043Z,100207.13
2022-10-01T05:57:09.595Z,100212.50
2022-10-01T05:59:36.232Z,100216.34
2022-10-01T06:02:04.320Z,100222.88
2022-10-01T06:04:41.053Z,100220.97
2022-10-01T06:07:07.884Z,100223.69
2022-10-01T06:09:34.251Z,100226.41
2022-10-01T06:12:00.945Z,100229.13
2022-10-01T06:14:27.601Z,100228.81
2022-10-01T06:16:54.714Z,100226.91
2022-10-01T06:19:21.201Z,100229.25
2022-10-01T06:21:47.720Z,100225.41
2022-10-01T06:24:14.492Z,100233.56
2022-10-01T06:26:41.033Z,100238.25
2022-10-01T06:29:07.553Z,100225.50
2022-10-01T06:31:34.158Z,100236.47
2022-10-01T06:34:00.926Z,100228.22
2022-10-01T06:36:27.508Z,100230.88
2022-10-01T06:38:53.878Z,100231.38
2022-10-01T06:41:20.260Z,100242.44
2022-10-01T06:43:48.772Z,100235.44
2022-10-01T06:46:15.213Z,100232.69
2022-10-01T06:48:41.765Z,100231.56
2022-10-01T06:51:08.660Z,100241.22
2022-10-01T06:53:35.092Z,100245.25
2022-10-01T06:56:07.118Z,100248.50
2022-10-01T06:58:34.059Z,100255.41
2022-10-01T07:01:03.520Z,100256.28
2022-10-01T07:03:31.371Z,100246.59
2022-10-01T07:06:04.793Z,100251.22
2022-10-01T07:08:31.180Z,100252.03
2022-10-01T07:11:05.127Z,100261.78
2022-10-01T07:13:31.552Z,100267.66
2022-10-01T07:15:58.000Z,100268.09
2022-10-01T07:18:24.384Z,100275.88
2022-10-01T07:20:51.160Z,100285.56
2022-10-01T07:23:17.768Z,100289.84
2022-10-01T07:25:44.910Z,100294.53
2022-10-01T07:28:18.321Z,100290.22
2022-10-01T07:31:06.640Z,100307.34
2022-10-01T07:33:33.478Z,100308.13
2022-10-01T07:36:03.799Z,100313.16
2022-10-01T07:38:30.501Z,100314.31
2022-10-01T07:40:58.523Z,100317.47
2022-10-01T07:43:25.156Z,100312.78
2022-10-01T07:45:55.210Z,100310.84
2022-10-01T07:48:21.852Z,100314.66
2022-10-01T07:50:48.335Z,100311.78
2022-10-01T07:53:15.264Z,100313.22
2022-10-01T07:55:41.852Z,100319.63
2022-10-01T07:58:09.651Z,100328.44
2022-10-01T08:00:36.318Z,100321.31
2022-10-01T08:03:02.922Z,100321.94
2022-10-01T08:05:31.995Z,100332.94
2022-10-01T08:08:00.448Z,100330.84
2022-10-01T08:10:27.555Z,100335.03
2022-10-01T08:13:00.532Z,100337.00
2022-10-01T08:15:27.236Z,100344.16
2022-10-01T08:17:53.585Z,100341.63
2022-10-01T08:20:21.595Z,100342.94
2022-10-01T08:22:48.096Z,100362.06
2022-10-01T08:25:15.147Z,100348.84
2022-10-01T08:27:41.743Z,100355.13
2022-10-01T08:30:08.728Z,100365.69
2022-10-01T08:32:35.109Z,100366.50
2022-10-01T08:35:01.494Z,100363.75
2022-10-01T08:37:29.239Z,100365.69
2022-10-01T08:39:56.738Z,100368.06
2022-10-01T08:42:38.055Z,100366.09
2022-10-01T08:45:11.414Z,100370.38
2022-10-01T08:47:42.469Z,100371.53
2022-10-01T08:50:22.707Z,100381.75
2022-10-01T08:53:02.847Z,100384.34
2022-10-01T08:55:36.337Z,100392.25
2022-10-01T08:58:06.428Z,100394.41
2022-10-01T09:00:40.184Z,100397.56
2022-10-01T09:03:10.563Z,100399.81
2022-10-01T09:06:18.189Z,100402.78
2022-10-01T09:09:04.393Z,100395.03
2022-10-01T09:11:52.591Z,100403.88
2022-10-01T09:14:26.126Z,100408.78
2022-10-01T09:16:58.011Z,100409.22
2022-10-01T09:19:54.545Z,100411.19
2022-10-01T09:22:48.669Z,100422.16
2022-10-01T09:25:27.109Z,100416.88
2022-10-01T09:28:24.213Z,100428.75
2022-10-01T09:30:55.868Z,100420.16
2022-10-01T09:33:25.377Z,100420.97
2022-10-01T09:36:09.703Z,100424.22
2022-10-01T09:38:41.692Z,100425.22
2022-10-01T09:41:10.555Z,100440.00
2022-10-01T09:43:39.373Z,100435.53
2022-10-01T09:46:13.203Z,100440.56
2022-10-01T09:49:03.248Z,100443.97
2022-10-01T09:51:44.993Z,100444.09
2022-10-01T09:54:36.196Z,100446.72
2022-10-01T09:57:24.904Z,100444.84
2022-10-01T10:00:17.387Z,100449.69
2022-10-01T10:02:49.384Z,100456.69
2022-10-01T10:05:17.724Z,100461.53
2022-10-01T10:07:46.846Z,100460.97
2022-10-01T10:10:25.914Z,100478.72
2022-10-01T10:13:14.627Z,100479.72
2022-10-01T10:16:00.484Z,100488.56
2022-10-01T10:18:35.604Z,100488.97
2022-10-01T10:21:07.456Z,100496.75
2022-10-01T10:23:34.421Z,100508.00
2022-10-01T10:26:03.242Z,100506.78
2022-10-01T10:28:44.614Z,100511.53
2022-10-01T10:31:21.209Z,100515.84
2022-10-01T10:33:51.140Z,100519.81
2022-10-01T10:36:19.663Z,100517.09
2022-10-01T10:38:53.799Z,100524.53
2022-10-01T10:41:26.306Z,100541.34
2022-10-01T10:43:57.613Z,100537.09
2022-10-01T10:46:34.262Z,100537.88
2022-10-01T10:49:06.268Z,100538.63
2022-10-01T10:51:48.657Z,100546.03
2022-10-01T10:54:20.758Z,100554.19
2022-10-01T10:56:55.078Z,100555.69
2022-10-01T10:59:21.716Z,100551.25
2022-10-01T11:01:49.439Z,100565.97
2022-10-01T11:04:42.105Z,100575.47
2022-10-01T11:07:11.188Z,100579.06
2022-10-01T11:10:16.366Z,100584.72
2022-10-01T11:13:09.052Z,100582.88
2022-10-01T11:15:38.675Z,100592.84
2022-10-01T11:18:25.459Z,100590.50
2022-10-01T11:21:22.735Z,100586.09
2022-10-01T11:23:59.157Z,100598.25
2022-10-01T11:26:46.212Z,100604.69
2022-10-01T11:29:26.463Z,100618.91
2022-10-01T11:32:19.749Z,100628.88
2022-10-01T11:34:56.908Z,100626.06
2022-10-01T11:37:38.952Z,100634.78
2022-10-01T11:40:17.983Z,100633.97
2022-10-01T11:42:46.614Z,100628.38
2022-10-01T11:45:23.483Z,100645.34
2022-10-01T11:47:57.495Z,100650.13
2022-10-01T11:50:29.035Z,100647.34
2022-10-01T11:53:05.987Z,100658.50
2022-10-01T11:55:57.667Z,100658.25
2022-10-01T11:58:57.109Z,100663.97
2022-10-01T12:01:23.573Z,100653.75
2022-10-01T12:03:56.801Z,100660.22
2022-10-01T12:06:39.798Z,100663.53
2022-10-01T12:09:20.680Z,100678.25
2022-10-01T12:12:01.356Z,100691.75
2022-10-01T12:14:40.276Z,100698.81
2022-10-01T12:17:18.808Z,100700.03
2022-10-01T12:19:50.837Z,100693.41
2022-10-01T12:22:24.698Z,100699.59
2022-10-01T12:24:51.818Z,100690.97
2022-10-01T12:27:24.036Z,100702.59
2022-10-01T12:30:15.013Z,100695.50
2022-10-01T12:32:41.468Z,100697.44
2022-10-01T12:35:22.493Z,100700.13
2022-10-01T12:38:01.666Z,100699.63
2022-10-01T12:41:04.083Z,100698.28
2022-10-01T12:43:58.538Z,100708.31
2022-10-01T12:46:35.207Z,100712.75
2022-10-01T12:49:13.743Z,100717.97
2022-10-01T12:51:46.229Z,100728.78
2022-10-01T12:54:45.955Z,100744.25
2022-10-01T12:57:23.106Z,100746.38
2022-10-01T13:00:18.165Z,100739.00
2022-10-01T13:03:19.948Z,100748.25
2022-10-01T13:05:55.329Z,100742.19
2022-10-01T13:08:57.967Z,100746.31
2022-10-01T13:11:37.460Z,100737.50
2022-10-01T13:14:07.132Z,100737.19
2022-10-01T13:16:42.640Z,100755.19
2022-10-01T13:19:19.356Z,100764.53
2022-10-01T13:22:15.587Z,100775.88
2022-10-01T13:24:53.579Z,100770.94
2022-10-01T13:27:35.464Z,100770.00
2022-10-01T13:30:18.936Z,100776.31
2022-10-01T13:32:58.597Z,100776.59
2022-10-01T13:35:35.944Z,100771.31
2022-10-01T13:38:30.575Z,100788.63
2022-10-01T13:41:03.262Z,100786.16
2022-10-01T13:43:31.520Z,100795.66
2022-10-01T13:46:07.180Z,100804.16
2022-10-01T13:48:35.415Z,100809.38
2022-10-01T13:51:10.603Z,100796.56
2022-10-01T13:53:47.334Z,100801.25
2022-10-01T13:56:28.106Z,100810.66
2022-10-01T13:58:54.696Z,100815.06
2022-10-01T14:01:24.089Z,100814.22
2022-10-01T14:03:57.313Z,100826.31
2022-10-01T14:06:26.160Z,100827.13
2022-10-01T14:09:03.384Z,100830.97
2022-10-01T14:11:51.556Z,100831.22
2022-10-01T14:14:52.957Z,100835.16
2022-10-01T14:17:23.032Z,100850.19
2022-10-01T14:19:50.983Z,100860.09
2022-10-01T14:22:21.379Z,100847.06
2022-10-01T14:25:12.269Z,100861.50
2022-10-01T14:27:47.545Z,100852.88
2022-10-01T14:30:18.528Z,100859.25
2022-10-01T14:33:03.896Z,100862.44
2022-10-01T14:35:36.616Z,100866.34
2022-10-01T14:38:22.185Z,100874.94
2022-10-01T14:40:50.564Z,100874.63
2022-10-01T14:43:29.028Z,100870.50
2022-10-01T14:46:04.380Z,100878.28
2022-10-01T14:48:33.600Z,100882.44
2022-10-01T14:51:03.085Z,100877.84
2022-10-01T14:53:36.153Z,100883.72
2022-10-01T14:56:12.450Z,100884.88
2022-10-01T14:58:38.799Z,100890.81
2022-10-01T15:01:06.584Z,100895.63
2022-10-01T15:03:41.794Z,100897.94
2022-10-01T15:06:41.523Z,100906.88
2022-10-01T15:09:18.698Z,100918.97
2022-10-01T15:11:48.609Z,100917.41
2022-10-01T15:14:19.939Z,100914.25
2022-10-01T15:16:46.924Z,100916.13
2022-10-01T15:19:17.102Z,100920.13
2022-10-01T15:21:51.072Z,100915.16
2022-10-01T15:24:35.616Z,100920.63
2022-10-01T15:27:02.503Z,100913.66
2022-10-01T15:29:29.128Z,100933.22
2022-10-01T15:31:57.453Z,100930.53
2022-10-01T15:34:26.623Z,100928.94
2022-10-01T15:36:54.050Z,100943.44
2022-10-01T15:39:37.593Z,100935.22
2022-10-01T15:42:10.197Z,100942.72
2022-10-01T15:44:38.625Z,100949.00
2022-10-01T15:47:20.724Z,100960.75
2022-10-01T15:50:11.130Z,100970.97
2022-10-01T15:52:49.831Z,100963.19
2022-10-01T15:55:42.712Z,100972.19
2022-10-01T15:58:23.224Z,100980.06
2022-10-01T16:00:58.963Z,100980.81
2022-10-01T16:03:48.804Z,100975.31
2022-10-01T16:06:23.594Z,100989.38
2022-10-01T16:09:02.957Z,100990.94
2022-10-01T16:11:33.932Z,100991.31
2022-10-01T16:14:18.912Z,100994.78
2022-10-01T16:16:45.543Z,100999.44
2022-10-01T16:19:28.310Z,100998.22
2022-10-01T16:22:18.837Z,100998.56
2022-10-01T16:24:47.725Z,101009.47
2022-10-01T16:27:27.481Z,101017.69
2022-10-01T16:30:09.069Z,101013.38
2022-10-01T16:32:35.804Z,101012.56
2022-10-01T16:35:25.159Z,101016.03
2022-10-01T16:37:54.827Z,101027.28
2022-10-01T16:40:24.045Z,101019.44
2022-10-01T16:42:51.565Z,101024.84
2022-10-01T16:45:26.935Z,101027.50
2022-10-01T16:47:56.812Z,101033.69
2022-10-01T16:50:24.295Z,101036.38
2022-10-01T16:52:56.814Z,101044.16
2022-10-01T16:55:32.426Z,101046.03
2022-10-01T16:57:58.932Z,101052.59
2022-10-01T17:00:27.520Z,101061.53
2022-10-01T17:02:55.336Z,101070.03
2022-10-01T17:05:22.868Z,101078.19
2022-10-01T17:07:49.744Z,101076.59
2022-10-01T17:10:18.131Z,101072.22
2022-10-01T17:12:47.861Z,101070.22
2022-10-01T17:15:19.816Z,101079.53
2022-10-01T17:17:47.038Z,101082.16
2022-10-01T17:20:13.446Z,101075.50
2022-10-01T17:22:40.021Z,101080.84
2022-10-01T17:25:07.458Z,101086.22
2022-10-01T17:27:34.119Z,101083.41
2022-10-01T17:30:00.521Z,101088.34
2022-10-01T17:32:27.223Z,101089.41
2022-10-01T17:34:54.394Z,101096.69
2022-10-01T17:37:23.812Z,101089.16
2022-10-01T17:39:50.472Z,101104.22
2022-10-01T17:42:18.057Z,101107.63
2022-10-01T17:44:44.784Z,101117.25
2022-10-01T17:47:11.383Z,101119.16
2022-10-01T17:49:37.837Z,101126.47
2022-10-01T17:52:05.813Z,101130.97
2022-10-01T17:54:33.203Z,101135.09
2022-10-01T17:56:59.561Z,101139.56
2022-10-01T17:59:26.244Z,101140.66
2022-10-01T18:01:53.354Z,101146.72
2022-10-01T18:04:21.692Z,101145.44
2022-10-01T18:06:49.000Z,101143.03
2022-10-01T18:09:15.784Z,101153.13
2022-10-01T18:11:42.149Z,101160.44
2022-10-01T18:14:08.566Z,101163.50
2022-10-01T18:16:35.511Z,101161.88
2022-10-01T18:21:49.370Z,101174.91
2022-10-01T18:24:16.447Z,101174.84
2022-10-01T18:26:43.254Z,101179.75
2022-10-01T18:29:21.900Z,101192.41
2022-10-01T18:31:53.276Z,101189.91
2022-10-01T18:34:26.653Z,101196.41
2022-10-01T18:37:04.379Z,101203.44
2022-10-01T18:39:43.123Z,101196.69
2022-10-01T18:42:19.204Z,101213.28
2022-10-01T18:44:52.747Z,101213.63
2022-10-01T18:47:27.942Z,101213.47
2022-10-01T18:50:12.866Z,101220.41
2022-10-01T18:52:54.604Z,101219.91
2022-10-01T18:55:59.816Z,101219.81
2022-10-01T18:59:00.812Z,101225.69
2022-10-01T19:01:50.300Z,101233.84
2022-10-01T19:04:43.456Z,101227.16
2022-10-01T19:07:22.332Z,101233.38
2022-10-01T19:10:08.648Z,101241.09
2022-10-01T19:12:43.867Z,101248.03
2022-10-01T19:15:28.868Z,101246.78
2022-10-01T19:17:58.245Z,101248.72
2022-10-01T19:20:30.567Z,101248.38
2022-10-01T19:23:10.631Z,101252.22
2022-10-01T19:25:47.405Z,101251.88
2022-10-01T19:28:22.503Z,101255.41
2022-10-01T19:31:07.380Z,101259.94
2022-10-01T19:33:39.641Z,101259.16
2022-10-01T19:36:13.534Z,101255.28
2022-10-01T19:38:48.118Z,101268.97
2022-10-01T19:41:25.491Z,101265.53
2022-10-01T19:44:00.796Z,101269.47
2022-10-01T19:46:41.021Z,101272.19
2022-10-01T19:49:08.656Z,101267.88
2022-10-01T19:51:48.361Z,101277.19
2022-10-01T19:54:18.262Z,101269.41
2022-10-01T19:56:48.566Z,101280.94
2022-10-01T19:59:19.811Z,101280.16
2022-10-01T20:01:54.400Z,101279.38
2022-10-01T20:04:45.788Z,101287.00
2022-10-01T20:07:21.763Z,101289.19
2022-10-01T20:10:16.343Z,101297.25
2022-10-01T20:13:07.218Z,101301.44
2022-10-01T20:15:42.363Z,101306.44
2022-10-01T20:18:41.532Z,101312.97
2022-10-01T20:21:13.627Z,101307.13
2022-10-01T20:23:53.364Z,101322.53
2022-10-01T20:26:37.620Z,101315.53
2022-10-01T20:29:17.627Z,101310.44
2022-10-01T20:32:03.388Z,101318.59
2022-10-01T20:34:56.879Z,101323.91
2022-10-01T20:37:52.300Z,101323.50
2022-10-01T20:40:24.959Z,101322.72
2022-10-01T20:42:57.638Z,101322.28
2022-10-01T20:45:29.911Z,101330.84
2022-10-01T20:48:01.546Z,101330.41
2022-10-01T20:50:38.578Z,101329.91
2022-10-01T20:53:15.022Z,101335.63
2022-10-01T20:55:50.629Z,101334.81
2022-10-01T20:58:24.839Z,101331.66
2022-10-01T21:00:59.588Z,101337.44
2022-10-01T21:03:55.244Z,101346.72
2022-10-01T21:06:30.023Z,101345.47
2022-10-01T21:09:17.873Z,101346.97
2022-10-01T21:11:58.380Z,101339.97
2022-10-01T21:14:46.582Z,101344.94
2022-10-01T21:17:23.192Z,101347.22
2022-10-01T21:20:11.555Z,101344.06
2022-10-01T21:23:15.820Z,101350.19
2022-10-01T21:25:51.396Z,101350.19
2022-10-01T21:28:39.652Z,101350.19
2022-10-01T21:31:13.024Z,101350.19
2022-10-01T21:33:54.122Z,101343.19
2022-10-01T21:36:52.370Z,101338.44
2022-10-01T21:39:28.862Z,101346.22
2022-10-01T21:42:11.465Z,101353.16
2022-10-01T21:45:11.882Z,101353.94
2022-10-01T21:48:11.210Z,101355.06
2022-10-01T21:50:51.399Z,101355.75
2022-10-01T21:53:34.341Z,101349.88
2022-10-01T21:56:35.517Z,101352.97
2022-10-01T21:59:07.463Z,101354.50
2022-10-01T22:01:49.676Z,101347.53
2022-10-01T22:04:32.923Z,101357.22
2022-10-01T22:07:08.736Z,101359.50
2022-10-01T22:09:43.233Z,101366.03
2022-10-01T22:12:10.912Z,101368.41
2022-10-01T22:14:38.634Z,101370.00
2022-10-01T22:17:17.595Z,101369.66
2022-10-01T22:19:51.133Z,101372.38
2022-10-01T22:22:23.973Z,101377.44
2022-10-01T22:24:53.153Z,101382.16
2022-10-01T22:27:37.169Z,101391.97
2022-10-01T22:30:17.524Z,101380.88
2022-10-01T22:33:05.542Z,101387.19
2022-10-01T22:35:51.337Z,101388.53
2022-10-01T22:38:32.952Z,101387.25
2022-10-01T22:41:17.043Z,101394.38
2022-10-01T22:43:45.806Z,101401.47
2022-10-01T22:46:46.519Z,101408.69
2022-10-01T22:49:54.613Z,101419.91
2022-10-01T22:52:42.728Z,101426.41
2022-10-01T22:55:12.004Z,101415.72
2022-10-01T22:58:23.037Z,101406.84
2022-10-01T23:01:00.654Z,101416.94
2022-10-01T23:03:50.000Z,101410.81
2022-10-01T23:06:45.443Z,101409.31
2022-10-01T23:09:24.852Z,101410.56
2022-10-01T23:12:09.242Z,101408.28
2022-10-01T23:14:57.227Z,101408.44
2022-10-01T23:17:36.351Z,101411.25
2022-10-01T23:20:16.398Z,101411.59
2022-10-01T23:22:54.575Z,101417.28
2022-10-01T23:25:49.478Z,101423.09
2022-10-01T23:28:27.706Z,101417.56
2022-10-01T23:31:40.319Z,101419.03
2022-10-01T23:34:28.497Z,101425.97
2022-10-01T23:37:23.684Z,101434.81
2022-10-01T23:39:58.776Z,101432.34
2022-10-01T23:42:37.753Z,101439.59
2022-10-01T23:45:52.671Z,101436.00
2022-10-01T23:48:28.340Z,101444.84
2022-10-01T23:51:07.128Z,101442.13
2022-10-01T23:53:53.696Z,101437.50
2022-10-01T23:56:43.225Z,101436.28
2022-10-01T23:59:23.642Z,101450.97
